createdAt,value
2018-07-09T00:01:59.609Z,20.70
2018-07-09T00:04:30.294Z,20.64
2018-07-09T00:07:01.667Z,20.61
2018-07-09T00:09:31.488Z,20.57
2018-07-09T00:12:02.353Z,20.54
2018-07-09T00:14:33.605Z,20.49
2018-07-09T00:17:04.374Z,20.44
2018-07-09T00:19:35.609Z,20.43
2018-07-09T00:22:05.793Z,20.41
2018-07-09T00:24:36.486Z,20.38
2018-07-09T00:27:07.421Z,20.34
2018-07-09T00:29:38.422Z,20.32
2018-07-09T00:32:09.908Z,20.29
2018-07-09T00:34:40.505Z,20.28
2018-07-09T00:37:11.385Z,20.25
2018-07-09T00:39:42.732Z,20.24
2018-07-09T00:42:13.502Z,20.19
2018-07-09T00:44:45.106Z,20.11
2018-07-09T00:47:15.757Z,20.08
2018-07-09T00:49:46.353Z,20.03
2018-07-09T00:52:17.861Z,19.97
2018-07-09T00:54:48.365Z,19.93
2018-07-09T00:57:19.823Z,19.87
2018-07-09T00:59:50.145Z,19.85
2018-07-09T01:02:20.689Z,19.80
2018-07-09T01:04:51.297Z,19.78
2018-07-09T01:07:22.649Z,19.79
2018-07-09T01:09:53.336Z,19.79
2018-07-09T01:12:24.684Z,19.78
2018-07-09T01:14:55.301Z,19.77
2018-07-09T01:17:25.849Z,19.75
2018-07-09T01:19:56.671Z,19.72
2018-07-09T01:22:27.486Z,19.68
2018-07-09T01:24:58.881Z,19.64
2018-07-09T01:27:29.542Z,19.62
2018-07-09T01:30:10.417Z,19.56
2018-07-09T01:32:40.521Z,19.52
2018-07-09T01:35:11.612Z,19.48
2018-07-09T01:37:41.905Z,19.46
2018-07-09T01:40:12.013Z,19.43
2018-07-09T01:42:42.157Z,19.40
2018-07-09T01:45:12.056Z,19.37
2018-07-09T01:47:41.896Z,19.38
2018-07-09T01:50:11.827Z,19.35
2018-07-09T01:52:41.589Z,19.36
2018-07-09T01:55:11.421Z,19.33
2018-07-09T01:57:41.166Z,19.33
2018-07-09T02:00:11.690Z,19.32
2018-07-09T02:02:42.642Z,19.31
2018-07-09T02:05:12.445Z,19.29
2018-07-09T02:07:43.291Z,19.27
2018-07-09T02:10:14.638Z,19.27
2018-07-09T02:12:45.328Z,19.25
2018-07-09T02:15:16.676Z,19.21
2018-07-09T02:17:47.315Z,19.14
2018-07-09T02:20:17.660Z,19.10
2018-07-09T02:22:48.330Z,19.06
2018-07-09T02:25:19.649Z,19.03
2018-07-09T02:27:50.335Z,19.01
2018-07-09T02:30:21.661Z,19.00
2018-07-09T02:32:52.297Z,18.99
2018-07-09T02:35:23.677Z,18.96
2018-07-09T02:37:54.360Z,18.94
2018-07-09T02:40:25.659Z,18.92
2018-07-09T02:42:56.339Z,18.88
2018-07-09T02:45:27.642Z,18.88
2018-07-09T02:47:58.309Z,18.86
2018-07-09T02:50:29.654Z,18.83
2018-07-09T02:53:00.314Z,18.73
2018-07-09T02:55:31.644Z,18.66
2018-07-09T02:58:02.331Z,18.63
2018-07-09T03:00:33.663Z,18.62
2018-07-09T03:03:04.460Z,18.61
2018-07-09T03:05:35.366Z,18.61
2018-07-09T03:08:05.621Z,18.59
2018-07-09T03:10:36.415Z,18.57
2018-07-09T03:13:06.597Z,18.52
2018-07-09T03:15:37.382Z,18.46
2018-07-09T03:18:08.665Z,18.40
2018-07-09T03:20:39.465Z,18.37
2018-07-09T03:23:10.345Z,18.38
2018-07-09T03:25:41.645Z,18.37
2018-07-09T03:28:12.361Z,18.35
2018-07-09T03:30:43.702Z,18.30
2018-07-09T03:33:14.281Z,18.27
2018-07-09T03:35:45.621Z,18.24
2018-07-09T03:38:16.326Z,18.24
2018-07-09T03:40:47.689Z,18.25
2018-07-09T03:43:18.313Z,18.24
2018-07-09T03:45:49.777Z,18.23
2018-07-09T03:48:20.666Z,18.20
2018-07-09T03:50:51.659Z,18.11
2018-07-09T03:53:22.334Z,18.11
2018-07-09T03:55:53.653Z,18.13
2018-07-09T03:58:24.591Z,18.14
2018-07-09T04:00:55.409Z,18.11
2018-07-09T04:03:26.585Z,18.10
2018-07-09T04:05:57.545Z,18.12
2018-07-09T04:08:28.269Z,18.13
2018-07-09T04:10:59.651Z,18.20
2018-07-09T04:13:30.257Z,18.18
2018-07-09T04:16:01.914Z,18.16
2018-07-09T04:18:32.347Z,18.22
2018-07-09T04:21:03.630Z,18.23
2018-07-09T04:23:34.310Z,18.24
2018-07-09T04:26:05.641Z,18.27
2018-07-09T04:28:36.322Z,18.30
2018-07-09T04:31:07.673Z,18.31
2018-07-09T04:33:38.544Z,18.32
2018-07-09T04:36:09.354Z,18.31
2018-07-09T04:38:40.625Z,18.29
2018-07-09T04:41:11.369Z,18.34
2018-07-09T04:43:42.588Z,18.39
2018-07-09T04:46:13.457Z,18.45
2018-07-09T04:48:44.337Z,18.49
2018-07-09T04:51:15.687Z,18.51
2018-07-09T04:53:46.317Z,18.54
2018-07-09T04:56:17.696Z,18.58
2018-07-09T04:58:47.525Z,18.64
2018-07-09T05:01:18.338Z,18.69
2018-07-09T05:03:49.601Z,18.76
2018-07-09T05:06:20.333Z,18.78
2018-07-09T05:08:51.709Z,18.85
2018-07-09T05:11:22.345Z,18.92
2018-07-09T05:13:53.665Z,18.94
2018-07-09T05:16:24.356Z,18.99
2018-07-09T05:18:55.604Z,19.06
2018-07-09T05:21:26.429Z,19.14
2018-07-09T05:23:57.616Z,19.22
2018-07-09T05:26:28.381Z,19.29
2018-07-09T05:28:59.546Z,19.34
2018-07-09T05:31:31.022Z,19.42
2018-07-09T05:34:01.496Z,19.50
2018-07-09T05:36:32.383Z,19.58
2018-07-09T05:39:04.001Z,19.70
2018-07-09T05:41:34.713Z,19.84
2018-07-09T05:44:05.359Z,19.92
2018-07-09T05:46:36.824Z,19.99
2018-07-09T05:49:07.457Z,20.17
2018-07-09T05:51:38.354Z,20.14
2018-07-09T05:54:09.685Z,20.09
2018-07-09T05:56:40.393Z,20.11
2018-07-09T05:59:11.609Z,20.15
2018-07-09T06:01:42.374Z,20.24
2018-07-09T06:04:13.577Z,20.33
2018-07-09T06:06:43.499Z,20.44
2018-07-09T06:09:14.621Z,20.59
2018-07-09T06:11:45.369Z,20.68
2018-07-09T06:14:16.582Z,20.81
2018-07-09T06:16:47.398Z,21.02
2018-07-09T06:19:17.336Z,21.05
2018-07-09T06:21:48.349Z,21.06
2018-07-09T06:24:19.590Z,21.08
2018-07-09T06:26:50.329Z,21.12
2018-07-09T06:29:21.601Z,21.24
2018-07-09T06:31:53.013Z,21.37
2018-07-09T06:34:23.797Z,21.51
2018-07-09T06:36:54.498Z,21.55
2018-07-09T06:39:25.337Z,21.55
2018-07-09T06:41:56.692Z,21.63
2018-07-09T06:44:27.402Z,21.77
2018-07-09T06:46:58.657Z,21.81
2018-07-09T06:49:29.389Z,21.87
2018-07-09T06:52:00.741Z,21.95
2018-07-09T06:54:31.311Z,22.09
2018-07-09T06:57:02.707Z,22.22
2018-07-09T06:59:32.509Z,22.37
2018-07-09T07:02:03.353Z,22.63
2018-07-09T07:04:34.598Z,22.84
2018-07-09T07:07:05.781Z,22.91
2018-07-09T07:09:36.346Z,23.10
2018-07-09T07:12:06.713Z,23.42
2018-07-09T07:14:37.308Z,23.51
2018-07-09T07:17:08.673Z,23.55
2018-07-09T07:19:39.416Z,23.46
2018-07-09T07:22:10.517Z,23.41
2018-07-09T07:24:41.317Z,23.38
2018-07-09T07:27:12.762Z,23.25
2018-07-09T07:29:43.485Z,23.19
2018-07-09T07:32:14.427Z,23.08
2018-07-09T07:34:45.362Z,23.05
2018-07-09T07:37:16.900Z,23.11
2018-07-09T07:39:47.465Z,23.33
2018-07-09T07:42:18.433Z,23.51
2018-07-09T07:44:49.727Z,23.73
2018-07-09T07:47:20.351Z,23.92
2018-07-09T07:49:51.733Z,24.06
2018-07-09T07:52:22.401Z,24.23
2018-07-09T07:54:53.594Z,24.33
2018-07-09T07:57:24.394Z,24.45
2018-07-09T07:59:55.325Z,24.52
2018-07-09T08:02:26.621Z,24.59
2018-07-09T08:04:57.305Z,24.81
2018-07-09T08:07:28.633Z,24.86
2018-07-09T08:09:59.418Z,24.92
2018-07-09T08:13:01.004Z,25.00
2018-07-09T08:15:01.502Z,25.00
2018-07-09T08:17:32.495Z,25.07
2018-07-09T08:20:03.782Z,25.15
2018-07-09T08:22:34.522Z,25.11
2018-07-09T08:25:05.541Z,25.46
2018-07-09T08:27:36.419Z,25.51
2018-07-09T08:30:06.359Z,25.64
2018-07-09T08:32:37.301Z,25.73
2018-07-09T08:35:08.965Z,25.90
2018-07-09T08:37:39.533Z,26.02
2018-07-09T08:40:10.856Z,26.15
2018-07-09T08:42:41.489Z,26.13
2018-07-09T08:45:12.309Z,26.21
2018-07-09T08:47:43.700Z,26.30
2018-07-09T08:50:14.438Z,26.55
2018-07-09T08:52:45.406Z,26.50
2018-07-09T08:55:16.415Z,26.59
2018-07-09T08:57:47.845Z,26.58
2018-07-09T09:00:18.402Z,26.68
2018-07-09T09:02:49.414Z,26.86
2018-07-09T09:05:20.500Z,27.01
2018-07-09T09:07:51.404Z,27.20
2018-07-09T09:10:21.492Z,27.17
2018-07-09T09:12:52.382Z,27.35
2018-07-09T09:15:23.400Z,27.03
2018-07-09T09:17:54.485Z,26.55
2018-07-09T09:20:25.379Z,26.65
2018-07-09T09:22:55.868Z,26.99
2018-07-09T09:25:26.685Z,27.22
2018-07-09T09:27:57.521Z,27.44
2018-07-09T09:30:28.338Z,26.82
2018-07-09T09:32:59.689Z,27.08
2018-07-09T09:35:30.294Z,27.48
2018-07-09T09:38:01.692Z,27.77
2018-07-09T09:40:32.492Z,27.81
2018-07-09T09:43:03.537Z,28.11
2018-07-09T09:45:34.299Z,28.27
2018-07-09T09:48:06.186Z,28.38
2018-07-09T09:50:36.787Z,28.53
2018-07-09T09:53:07.001Z,28.72
2018-07-09T09:55:37.953Z,28.55
2018-07-09T09:58:09.326Z,28.65
2018-07-09T10:00:44.105Z,28.28
2018-07-09T10:03:14.066Z,28.27
2018-07-09T10:05:44.414Z,28.41
2018-07-09T10:08:14.314Z,28.55
2018-07-09T10:11:58.428Z,28.54
2018-07-09T10:14:28.320Z,28.20
2018-07-09T10:16:58.203Z,28.27
2018-07-09T10:19:28.267Z,28.13
2018-07-09T10:21:58.149Z,28.29
2018-07-09T10:24:28.006Z,28.68
2018-07-09T10:26:57.942Z,28.96
2018-07-09T10:29:27.923Z,29.17
2018-07-09T10:31:57.930Z,29.47
2018-07-09T10:34:28.043Z,29.52
2018-07-09T10:36:57.979Z,29.66
2018-07-09T10:39:27.935Z,29.66
2018-07-09T10:41:57.961Z,29.90
2018-07-09T10:44:28.038Z,29.93
2018-07-09T10:46:58.105Z,29.58
2018-07-09T10:49:28.203Z,28.64
2018-07-09T10:51:58.423Z,28.62
2018-07-09T10:54:28.519Z,28.59
2018-07-09T10:56:58.427Z,28.24
2018-07-09T10:59:28.252Z,28.85
2018-07-09T11:01:58.591Z,29.37
2018-07-09T11:04:28.561Z,29.48
2018-07-09T11:06:58.505Z,28.77
2018-07-09T11:09:29.497Z,28.56
2018-07-09T11:11:59.563Z,28.35
2018-07-09T11:14:29.945Z,29.05
2018-07-09T11:16:59.960Z,29.30
2018-07-09T11:19:29.848Z,29.75
2018-07-09T11:21:59.977Z,30.03
2018-07-09T11:24:29.845Z,30.26
2018-07-09T11:26:59.959Z,29.85
2018-07-09T11:29:29.890Z,29.31
2018-07-09T11:31:59.753Z,28.74
2018-07-09T11:34:29.923Z,29.00
2018-07-09T11:36:59.968Z,29.14
2018-07-09T11:39:29.881Z,29.77
2018-07-09T11:41:59.876Z,29.91
2018-07-09T11:44:30.276Z,30.10
2018-07-09T11:47:00.150Z,30.43
2018-07-09T11:49:29.986Z,30.83
2018-07-09T11:51:59.902Z,30.69
2018-07-09T11:54:30.017Z,31.03
2018-07-09T11:56:59.860Z,31.36
2018-07-09T11:59:30.211Z,31.23
2018-07-09T12:02:00.572Z,30.97
2018-07-09T12:04:30.932Z,31.21
2018-07-09T12:07:00.887Z,31.05
2018-07-09T12:09:31.440Z,31.37
2018-07-09T12:12:01.260Z,30.91
2018-07-09T12:14:31.094Z,30.19
2018-07-09T12:17:00.958Z,30.29
2018-07-09T12:19:30.903Z,30.82
2018-07-09T12:22:00.938Z,31.07
2018-07-09T12:24:30.965Z,31.28
2018-07-09T12:27:00.999Z,31.15
2018-07-09T12:29:30.932Z,30.89
2018-07-09T12:32:00.845Z,30.53
2018-07-09T12:34:30.969Z,29.98
2018-07-09T12:37:00.913Z,29.50
2018-07-09T12:39:30.829Z,29.55
2018-07-09T12:42:00.910Z,29.62
2018-07-09T12:44:30.985Z,29.47
2018-07-09T12:47:01.150Z,30.03
2018-07-09T12:49:30.961Z,30.27
2018-07-09T12:52:00.852Z,30.48
2018-07-09T12:54:31.175Z,30.72
2018-07-09T12:57:01.245Z,30.82
2018-07-09T12:59:31.206Z,30.54
2018-07-09T13:02:01.579Z,30.24
2018-07-09T13:04:31.730Z,29.79
2018-07-09T13:07:02.088Z,29.86
2018-07-09T13:09:32.462Z,30.08
2018-07-09T13:12:02.246Z,29.80
2018-07-09T13:14:32.120Z,29.65
2018-07-09T13:17:02.164Z,30.01
2018-07-09T13:19:32.135Z,30.48
2018-07-09T13:22:02.090Z,30.52
2018-07-09T13:24:32.130Z,30.84
2018-07-09T13:27:02.047Z,31.06
2018-07-09T13:29:32.173Z,31.43
2018-07-09T13:32:02.769Z,31.07
2018-07-09T13:34:33.065Z,31.14
2018-07-09T13:37:03.373Z,31.14
2018-07-09T13:39:35.617Z,31.22
2018-07-09T13:42:06.031Z,31.49
2018-07-09T13:44:36.089Z,31.38
2018-07-09T13:47:06.246Z,31.64
2018-07-09T13:49:36.337Z,31.59
2018-07-09T13:52:06.294Z,31.82
2018-07-09T13:54:36.546Z,31.73
2018-07-09T13:57:06.816Z,31.64
2018-07-09T13:59:37.465Z,31.54
2018-07-09T14:02:07.311Z,31.77
2018-07-09T14:04:39.013Z,31.86
2018-07-09T14:07:09.572Z,31.62
2018-07-09T14:09:40.261Z,31.39
2018-07-09T14:12:11.637Z,31.38
2018-07-09T14:14:42.341Z,31.24
2018-07-09T14:17:13.305Z,31.27
2018-07-09T14:20:21.477Z,31.53
2018-07-09T14:22:51.441Z,31.37
2018-07-09T14:25:21.217Z,31.28
2018-07-09T14:27:51.017Z,31.71
2018-07-09T14:30:20.995Z,31.63
2018-07-09T14:32:50.965Z,31.60
2018-07-09T14:35:20.904Z,31.89
2018-07-09T14:37:50.929Z,32.05
2018-07-09T14:40:21.051Z,31.75
2018-07-09T14:42:51.100Z,31.70
2018-07-09T14:45:20.972Z,31.77
2018-07-09T14:47:51.193Z,31.73
2018-07-09T14:50:21.591Z,31.36
2018-07-09T14:52:51.563Z,31.45
2018-07-09T14:55:21.509Z,31.79
2018-07-09T14:57:51.393Z,31.75
2018-07-09T15:00:21.376Z,32.07
2018-07-09T15:02:51.217Z,31.98
2018-07-09T15:05:20.973Z,31.73
2018-07-09T15:07:50.873Z,31.79
2018-07-09T15:10:20.818Z,31.67
2018-07-09T15:12:50.961Z,31.63
2018-07-09T15:15:21.069Z,31.71
2018-07-09T15:17:50.977Z,31.20
2018-07-09T15:20:20.845Z,30.75
2018-07-09T15:22:50.810Z,31.02
2018-07-09T15:25:21.209Z,30.97
2018-07-09T15:27:51.444Z,30.91
2018-07-09T15:30:21.253Z,31.07
2018-07-09T15:32:51.102Z,30.83
2018-07-09T15:35:21.072Z,30.76
2018-07-09T15:37:50.934Z,30.79
2018-07-09T15:40:20.906Z,30.58
2018-07-09T15:42:50.773Z,30.53
2018-07-09T15:45:21.065Z,30.19
2018-07-09T15:47:50.995Z,30.07
2018-07-09T15:50:20.965Z,29.98
2018-07-09T15:52:50.783Z,29.68
2018-07-09T15:55:21.364Z,29.76
2018-07-09T15:57:52.326Z,29.73
2018-07-09T16:00:22.329Z,29.62
2018-07-09T16:02:53.622Z,29.65
2018-07-09T16:05:24.314Z,29.86
2018-07-09T16:19:57.837Z,30.23
2018-07-09T16:22:27.726Z,30.16
2018-07-09T16:24:57.728Z,30.08
2018-07-09T16:27:27.742Z,30.10
2018-07-09T16:29:57.645Z,29.85
2018-07-09T16:32:27.677Z,29.82
2018-07-09T16:34:57.637Z,29.37
2018-07-09T16:37:27.653Z,29.67
2018-07-09T16:39:57.655Z,29.60
2018-07-09T16:42:27.612Z,29.87
2018-07-09T16:44:57.589Z,29.84
2018-07-09T16:47:27.534Z,29.97
2018-07-09T16:49:57.579Z,29.82
2018-07-09T16:52:27.577Z,29.83
2018-07-09T16:54:57.519Z,29.91
2018-07-09T16:57:27.530Z,29.96
2018-07-09T16:59:57.603Z,29.85
2018-07-09T17:02:27.502Z,29.88
2018-07-09T17:04:57.606Z,29.56
2018-07-09T17:07:27.509Z,29.58
2018-07-09T17:09:57.563Z,29.67
2018-07-09T17:12:27.562Z,29.72
2018-07-09T17:14:57.584Z,29.78
2018-07-09T17:17:27.463Z,29.76
2018-07-09T17:19:57.570Z,29.78
2018-07-09T17:22:27.570Z,29.70
2018-07-09T17:24:57.649Z,29.57
2018-07-09T17:27:27.540Z,29.57
2018-07-09T17:29:57.639Z,29.48
2018-07-09T17:32:27.469Z,29.47
2018-07-09T17:34:57.692Z,29.42
2018-07-09T17:37:27.646Z,29.38
2018-07-09T17:39:57.505Z,29.31
2018-07-09T17:42:27.612Z,29.30
2018-07-09T17:44:57.559Z,29.26
2018-07-09T17:47:27.586Z,29.21
2018-07-09T17:49:57.604Z,29.18
2018-07-09T17:52:27.650Z,29.13
2018-07-09T17:54:57.758Z,29.07
2018-07-09T17:57:27.598Z,29.03
2018-07-09T17:59:57.621Z,29.00
2018-07-09T18:02:27.531Z,28.94
2018-07-09T18:04:57.655Z,28.88
2018-07-09T18:07:27.530Z,28.86
2018-07-09T18:09:57.809Z,28.83
2018-07-09T18:12:27.689Z,28.74
2018-07-09T18:14:57.594Z,28.68
2018-07-09T18:17:27.557Z,28.64
2018-07-09T18:19:57.514Z,28.56
2018-07-09T18:22:27.570Z,28.53
2018-07-09T18:24:57.561Z,28.49
2018-07-09T18:27:27.883Z,28.43
2018-07-09T18:29:57.754Z,28.41
2018-07-09T18:32:27.633Z,28.37
2018-07-09T18:34:57.634Z,28.33
2018-07-09T18:37:27.510Z,28.27
2018-07-09T18:39:57.882Z,28.19
2018-07-09T18:42:27.728Z,28.13
2018-07-09T18:44:57.714Z,28.08
2018-07-09T18:47:27.656Z,28.01
2018-07-09T18:49:57.601Z,27.95
2018-07-09T18:52:27.901Z,27.89
2018-07-09T18:54:57.733Z,27.84
2018-07-09T18:57:27.668Z,27.78
2018-07-09T18:59:57.502Z,27.69
2018-07-09T19:02:27.578Z,27.61
2018-07-09T19:04:57.649Z,27.53
2018-07-09T19:07:29.978Z,27.41
2018-07-09T19:10:00.191Z,27.34
2018-07-09T19:12:36.106Z,27.29
2018-07-09T19:15:09.198Z,27.22
2018-07-09T19:19:00.270Z,27.20
2018-07-09T19:21:42.060Z,27.14
2018-07-09T19:24:11.432Z,27.11
2018-07-09T19:26:40.370Z,27.04
2018-07-09T19:29:08.310Z,27.01
2018-07-09T19:31:36.425Z,26.94
2018-07-09T19:34:04.588Z,26.87
2018-07-09T19:36:32.853Z,26.82
2018-07-09T19:39:01.087Z,26.79
2018-07-09T19:41:29.054Z,26.74
2018-07-09T19:43:57.002Z,26.68
2018-07-09T19:46:24.988Z,26.61
2018-07-09T19:48:53.461Z,26.57
2018-07-09T19:51:21.794Z,26.53
2018-07-09T19:53:49.815Z,26.45
2018-07-09T19:56:17.758Z,26.38
2018-07-09T19:58:45.812Z,26.29
2018-07-09T20:01:13.777Z,26.25
2018-07-09T20:03:41.870Z,26.13
2018-07-09T20:06:10.280Z,26.31
2018-07-09T20:08:43.394Z,26.15
2018-07-09T20:11:16.627Z,26.07
2018-07-09T20:13:51.709Z,26.02
2018-07-09T20:16:24.563Z,25.97
2018-07-09T20:18:53.922Z,25.90
2018-07-09T20:21:22.091Z,25.87
2018-07-09T20:23:50.499Z,25.83
2018-07-09T20:26:19.775Z,25.72
2018-07-09T20:28:48.122Z,25.66
2018-07-09T20:31:16.270Z,25.63
2018-07-09T20:33:44.425Z,25.61
2018-07-09T20:36:12.946Z,25.55
2018-07-09T20:38:40.986Z,25.49
2018-07-09T20:41:09.052Z,25.44
2018-07-09T20:43:37.863Z,25.43
2018-07-09T20:46:06.458Z,25.41
2018-07-09T20:48:35.008Z,25.36
2018-07-09T20:51:03.397Z,25.40
2018-07-09T20:53:32.187Z,25.45
2018-07-09T20:56:01.656Z,25.46
2018-07-09T20:58:31.007Z,25.47
2018-07-09T21:01:00.486Z,25.47
2018-07-09T21:03:28.890Z,25.45
2018-07-09T21:05:57.285Z,25.44
2018-07-09T21:08:26.010Z,25.42
2018-07-09T21:10:54.278Z,25.30
2018-07-09T21:13:22.269Z,25.28
2018-07-09T21:15:50.532Z,25.23
2018-07-09T21:18:19.718Z,25.23
2018-07-09T21:20:48.575Z,25.21
2018-07-09T21:23:16.896Z,25.18
2018-07-09T21:25:45.112Z,25.12
2018-07-09T21:28:13.220Z,25.11
2018-07-09T21:30:41.752Z,25.09
2018-07-09T21:33:10.116Z,25.07
2018-07-09T21:35:38.371Z,25.11
2018-07-09T21:38:13.171Z,25.11
2018-07-09T21:40:41.895Z,25.07
2018-07-09T21:43:10.132Z,25.03
2018-07-09T21:45:38.397Z,25.00
2018-07-09T21:48:10.556Z,24.94
2018-07-09T21:50:35.917Z,24.91
2018-07-09T21:53:04.796Z,24.90
2018-07-09T21:55:33.833Z,24.87
2018-07-09T21:58:03.000Z,24.83
2018-07-09T22:00:31.372Z,24.80
2018-07-09T22:02:59.451Z,24.77
2018-07-09T22:05:29.631Z,24.73
2018-07-09T22:08:00.556Z,24.69
2018-07-09T22:10:31.346Z,24.67
2018-07-09T22:13:01.434Z,24.60
2018-07-09T22:15:31.611Z,24.58
2018-07-09T22:18:01.526Z,24.47
2018-07-09T22:20:32.446Z,24.51
2018-07-09T22:23:03.160Z,24.49
2018-07-09T22:25:32.785Z,24.44
2018-07-09T22:28:00.968Z,24.43
2018-07-09T22:30:32.506Z,24.40
2018-07-09T22:33:02.364Z,24.38
2018-07-09T22:35:32.181Z,24.35
2018-07-09T22:38:02.201Z,24.34
2018-07-09T22:40:32.021Z,24.32
2018-07-09T22:43:06.485Z,24.32
2018-07-09T22:45:36.277Z,24.29
2018-07-09T22:48:06.324Z,24.27
2018-07-09T22:50:36.113Z,24.24
2018-07-09T22:53:05.868Z,24.22
2018-07-09T22:55:46.254Z,24.27
2018-07-09T22:58:18.816Z,24.32
2018-07-09T23:00:51.442Z,24.14
2018-07-09T23:03:24.005Z,23.88
2018-07-09T23:05:55.437Z,23.76
2018-07-09T23:08:26.268Z,23.87
2018-07-09T23:11:21.822Z,23.32
2018-07-09T23:17:11.810Z,23.11
2018-07-09T23:21:58.669Z,22.73
2018-07-09T23:24:27.181Z,22.55
2018-07-09T23:26:55.667Z,22.52
2018-07-09T23:29:23.675Z,22.51
2018-07-09T23:31:51.758Z,22.36
2018-07-09T23:34:20.171Z,22.32
2018-07-09T23:36:48.180Z,22.29
2018-07-09T23:39:16.109Z,22.28
2018-07-09T23:41:44.153Z,22.27
2018-07-09T23:44:12.084Z,22.26
2018-07-09T23:46:40.007Z,22.24
2018-07-09T23:49:07.964Z,22.22
2018-07-09T23:51:35.910Z,22.21
2018-07-09T23:54:03.882Z,22.19
2018-07-09T23:56:55.048Z,22.17
2018-07-09T23:59:35.397Z,22.14
